Time;durP1;ratioP1;P1;durP2;ratioP2;P2;SDS_P1;SDS_P2;PMS_P1;PMS_P2;Temp;Humidity;BMP_temperature;BMP_pressure;BME280_temperature;BME280_humidity;BME280_pressure;Samples;Min_cycle;Max_cycle;Signal;HPM_P1;HPM_P2
2022/11/07 06:13:19;;;;;;;8.48;4.35;;;;;;;6.81;100.00;100865.06;6203743;22;20011;-82
2022/11/07 08:25:20;;;;;;;13.70;7.03;;;;;;;12.60;100.00;101008.63;6219086;22;20280;-91
2022/11/07 08:27:45;;;;;;;13.10;6.95;;;;;;;12.68;100.00;101011.31;6251942;22;20325;-90
2022/11/07 08:30:12;;;;;;;20.52;7.50;;;;;;;13.12;100.00;101011.06;6279584;22;20034;-89
2022/11/07 08:32:37;;;;;;;16.27;7.55;;;;;;;12.83;100.00;101009.66;6278565;22;20086;-88
2022/11/07 08:35:04;;;;;;;15.27;7.47;;;;;;;13.06;100.00;101011.69;6278702;22;20058;-89
2022/11/07 08:37:29;;;;;;;14.80;8.02;;;;;;;13.00;100.00;101012.34;6278299;22;19999;-91
2022/11/07 08:39:57;;;;;;;17.35;7.43;;;;;;;13.03;100.00;101022.66;6281914;22;20443;-89
2022/11/07 08:42:26;;;;;;;18.00;7.70;;;;;;;12.81;100.00;101027.63;6279423;22;20023;-89
2022/11/07 08:44:52;;;;;;;20.35;7.97;;;;;;;12.57;100.00;101021.41;6279045;22;20031;-89
2022/11/07 08:47:18;;;;;;;19.67;8.55;;;;;;;12.87;100.00;101019.00;6278380;22;20018;-89
2022/11/07 08:49:44;;;;;;;15.43;7.63;;;;;;;13.08;100.00;101015.00;6278507;22;20012;-89
2022/11/07 08:52:10;;;;;;;19.35;8.80;;;;;;;12.76;100.00;101019.28;6278453;22;20004;-88
2022/11/07 08:54:35;;;;;;;17.08;8.63;;;;;;;12.92;100.00;101022.00;6251960;22;20012;-89
2022/11/07 08:57:01;;;;;;;18.15;7.82;;;;;;;12.91;100.00;101023.00;6287694;22;20012;-86
2022/11/07 08:59:28;;;;;;;17.13;8.02;;;;;;;12.75;100.00;101022.97;6287018;22;20031;-87
2022/11/07 09:01:54;;;;;;;18.90;8.52;;;;;;;12.49;100.00;101018.75;6282134;22;20019;-87
2022/11/07 09:04:20;;;;;;;23.88;10.15;;;;;;;12.46;100.00;101019.94;6280397;22;20011;-87
2022/11/07 09:06:46;;;;;;;19.58;9.43;;;;;;;12.22;100.00;101025.16;6253871;22;20086;-88
2022/11/07 09:09:15;;;;;;;19.48;8.60;;;;;;;12.54;100.00;101027.91;6282863;22;20015;-87
2022/11/07 09:11:41;;;;;;;18.13;9.95;;;;;;;12.83;100.00;101030.94;6287847;22;20000;-84
2022/11/07 09:14:07;;;;;;;21.85;9.68;;;;;;;12.80;100.00;101022.47;6287285;22;20007;-85
2022/11/07 09:16:32;;;;;;;24.77;10.20;;;;;;;13.02;100.00;101024.50;6256103;22;20016;-87
2022/11/07 09:18:58;;;;;;;21.80;9.23;;;;;;;13.31;100.00;101032.00;6277719;22;20015;-86
2022/11/07 09:21:23;;;;;;;15.50;8.93;;;;;;;13.32;99.07;101028.34;6278452;22;20030;-86
2022/11/07 09:23:51;;;;;;;18.17;9.70;;;;;;;13.02;100.00;101032.47;6249595;22;20490;-89
2022/11/07 09:26:16;;;;;;;16.95;9.10;;;;;;;12.93;100.00;101031.63;6251476;22;20012;-84
2022/11/07 09:28:42;;;;;;;19.23;9.35;;;;;;;13.13;100.00;101036.66;6226652;22;20527;-86
2022/11/07 09:31:07;;;;;;;20.90;9.70;;;;;;;13.07;100.00;101038.13;6256410;22;20418;-90
2022/11/07 09:33:33;;;;;;;21.15;10.27;;;;;;;13.12;100.00;101033.19;6253330;22;20461;-86
2022/11/07 09:36:00;;;;;;;20.25;10.35;;;;;;;12.93;100.00;101044.09;6279744;22;20067;-84
2022/11/07 09:38:28;;;;;;;26.00;10.77;;;;;;;13.22;100.00;101054.31;6251705;22;20079;-85
2022/11/07 09:41:39;;;;;;;22.55;10.23;;;;;;;13.34;100.00;101047.66;6277041;22;20042;-90
2022/11/07 09:44:38;;;;;;;21.27;11.45;;;;;;;13.16;100.00;101055.78;6165787;23;20033;-86
2022/11/07 09:47:10;;;;;;;22.85;10.88;;;;;;;13.32;100.00;101061.09;6150278;23;20021;-85
2022/11/07 09:49:38;;;;;;;17.35;9.65;;;;;;;13.35;100.00;101054.66;6213635;22;20043;-87
2022/11/07 09:52:45;;;;;;;18.17;9.90;;;;;;;13.46;100.00;101051.63;6248928;22;20004;-85
2022/11/07 09:55:32;;;;;;;20.85;11.07;;;;;;;13.57;100.00;101061.94;6277529;22;20030;-90
2022/11/07 09:58:04;;;;;;;23.95;10.00;;;;;;;14.13;97.47;101065.47;6276930;22;20012;-86
2022/11/07 10:00:31;;;;;;;19.75;10.32;;;;;;;14.12;96.89;101063.84;6274781;22;20061;-87
2022/11/07 10:02:58;;;;;;;22.88;11.98;;;;;;;14.28;95.72;101058.44;6276005;22;20056;-88
2022/11/07 10:05:49;;;;;;;22.75;11.40;;;;;;;13.80;97.17;101059.41;6273424;22;20364;-89
2022/11/07 10:08:37;;;;;;;21.83;10.57;;;;;;;13.98;97.51;101060.03;6279975;22;20448;-86
2022/11/07 10:11:12;;;;;;;22.27;10.95;;;;;;;13.69;99.85;101063.25;6281525;22;20014;-87
2022/11/07 10:14:13;;;;;;;22.08;10.90;;;;;;;14.24;94.07;101062.44;6281036;22;20012;-88
2022/11/07 10:16:47;;;;;;;21.80;10.95;;;;;;;13.95;96.60;101065.72;6254327;22;20016;-86
2022/11/07 10:19:28;;;;;;;24.15;11.20;;;;;;;13.99;97.46;101059.00;6253655;22;20019;-88
2022/11/07 10:22:08;;;;;;;22.65;11.15;;;;;;;14.07;97.32;101058.16;6250680;22;20012;-89
2022/11/07 10:24:58;;;;;;;22.48;11.68;;;;;;;13.80;98.92;101059.41;6226962;22;20026;-84
2022/11/07 10:27:26;;;;;;;28.55;11.98;;;;;;;13.90;95.59;101062.72;6227804;22;20016;-89
2022/11/07 10:29:54;;;;;;;25.58;12.32;;;;;;;13.62;96.70;101051.59;6277346;22;20004;-86
2022/11/07 10:32:48;;;;;;;28.48;12.80;;;;;;;14.35;91.23;101054.91;6254747;22;20046;-87
2022/11/07 10:35:36;;;;;;;23.95;11.13;;;;;;;14.61;91.49;101048.47;6276368;22;20012;-87
2022/11/07 10:38:18;;;;;;;24.50;10.95;;;;;;;14.89;87.91;101053.13;6277401;22;20019;-86
2022/11/07 10:40:45;;;;;;;22.52;11.02;;;;;;;14.88;87.72;101054.13;6279086;22;20451;-88
2022/11/07 10:43:38;;;;;;;24.58;10.95;;;;;;;14.55;89.46;101060.66;6252238;22;20377;-88
2022/11/07 10:46:12;;;;;;;23.38;11.40;;;;;;;14.74;89.47;101046.06;6252208;22;20011;-84
2022/11/07 10:48:59;;;;;;;23.17;10.45;;;;;;;14.80;90.27;101046.19;6282193;22;20026;-82
2022/11/07 10:51:52;;;;;;;22.67;11.13;;;;;;;14.47;94.55;101053.53;6283015;22;20004;-82
2022/11/07 10:54:20;;;;;;;24.60;12.05;;;;;;;14.58;94.00;101059.50;6273982;22;20016;-86
2022/11/07 10:56:55;;;;;;;23.02;11.90;;;;;;;14.40;95.39;101047.25;6283116;22;20006;-81
2022/11/07 10:59:27;;;;;;;26.90;12.52;;;;;;;14.22;96.76;101043.13;6285484;22;20018;-85
2022/11/07 11:01:58;;;;;;;23.27;11.05;;;;;;;14.22;98.02;101043.94;6253077;22;20054;-88
2022/11/07 11:04:27;;;;;;;22.23;11.55;;;;;;;14.16;96.67;101033.13;6281363;22;20069;-87
2022/11/07 11:07:12;;;;;;;22.73;10.90;;;;;;;14.14;98.25;101029.81;6281499;22;20027;-86
2022/11/07 11:09:49;;;;;;;23.92;11.32;;;;;;;14.59;94.62;101037.97;6252788;22;20045;-89
2022/11/07 11:12:25;;;;;;;21.83;10.65;;;;;;;14.45;96.26;101033.38;6280351;22;20091;-86
2022/11/07 11:15:03;;;;;;;21.35;10.57;;;;;;;14.67;94.36;101021.09;6277448;22;20023;-84
2022/11/07 11:17:32;;;;;;;23.92;11.48;;;;;;;14.59;93.92;101019.28;6278450;22;20015;-81
2022/11/07 11:19:58;;;;;;;23.35;10.88;;;;;;;14.70;93.36;101005.56;6282910;22;20007;-81
2022/11/07 11:22:27;;;;;;;20.88;10.90;;;;;;;14.69;93.69;101006.56;6282648;22;20094;-85
2022/11/07 11:25:10;;;;;;;24.70;11.57;;;;;;;14.50;94.79;101004.34;6279181;22;20008;-83
2022/11/07 11:27:37;;;;;;;23.92;12.30;;;;;;;14.42;94.07;101004.38;6281880;22;20016;-84
2022/11/07 11:30:11;;;;;;;23.90;12.57;;;;;;;14.30;94.59;101001.25;6281636;22;19999;-85
2022/11/07 11:33:02;;;;;;;22.70;11.70;;;;;;;13.87;97.92;100996.44;6245902;22;20008;-89
2022/11/07 11:35:50;;;;;;;26.50;11.98;;;;;;;13.94;98.63;100995.59;6261502;22;20039;-87
2022/11/07 11:38:25;;;;;;;26.77;11.27;;;;;;;14.16;96.58;100995.81;6279925;22;20087;-87
2022/11/07 11:40:56;;;;;;;28.45;14.02;;;;;;;14.51;94.36;100992.69;6256586;22;20065;-85
2022/11/07 11:43:31;;;;;;;27.70;13.38;;;;;;;14.64;93.43;100995.59;6286352;22;20011;-86
2022/11/07 11:46:16;;;;;;;29.90;14.23;;;;;;;14.73;91.95;100991.03;6234411;22;20414;-83
2022/11/07 11:49:03;;;;;;;29.17;13.48;;;;;;;14.41;95.04;100994.75;6281828;22;20015;-83
2022/11/07 11:51:47;;;;;;;29.60;13.63;;;;;;;14.22;97.65;100989.81;6281254;22;20011;-86
2022/11/07 11:54:14;;;;;;;34.30;14.93;;;;;;;14.21;96.55;100991.66;6279656;22;20149;-88
2022/11/07 11:56:56;;;;;;;28.73;13.45;;;;;;;14.58;93.80;100985.63;6254480;22;20012;-88
2022/11/07 12:30:00;;;;;;;31.80;15.48;;;;;;;15.15;89.04;100948.63;6226012;22;20286;-87
2022/11/07 12:32:48;;;;;;;29.42;14.45;;;;;;;15.18;88.48;100944.78;6250587;22;20335;-85
2022/11/07 12:35:29;;;;;;;30.08;14.27;;;;;;;14.94;89.88;100949.34;6255156;22;20024;-85
2022/11/07 12:38:43;;;;;;;26.30;13.65;;;;;;;15.05;89.38;100949.94;6278810;22;20052;-89
2022/11/07 12:41:16;;;;;;;;;;;;;;;15.30;87.99;100957.53;6213613;22;20170;-85
2022/11/07 12:44:03;;;;;;;;;;;;;;;15.44;86.33;100950.53;6282160;22;20126;-87
2022/11/07 12:46:44;;;;;;;;;;;;;;;15.47;84.45;100944.81;6280257;22;19937;-84
2022/11/07 12:49:09;;;;;;;;;;;;;;;15.19;86.12;100943.75;6279984;22;20323;-85
2022/11/07 12:51:38;;;;;;;;;;;;;;;15.22;87.60;100946.91;6254709;22;19949;-85
2022/11/07 12:54:22;;;;;;;;;;;;;;;15.27;87.72;100949.03;6284473;22;20242;-88
2022/11/07 12:56:48;;;;;;;;;;;;;;;15.63;85.38;100933.97;6279016;22;19969;-86
2022/11/07 12:59:23;;;;;;;;;;;;;;;15.73;85.54;100934.53;6278735;22;19938;-85
2022/11/07 13:02:00;;;;;;;;;;;;;;;15.75;85.45;100945.84;6258553;22;20227;-84
2022/11/07 13:04:33;;;;;;;;;;;;;;;15.69;86.09;100937.75;6280729;22;19911;-86
2022/11/07 13:07:07;;;;;;;;;;;;;;;15.58;86.70;100928.34;6250546;22;19993;-88
2022/11/07 13:09:56;;;;;;;;;;;;;;;15.52;88.41;100937.94;6282201;22;19911;-88
2022/11/07 13:12:24;;;;;;;;;;;;;;;15.49;89.01;100938.31;6281538;22;19934;-83
2022/11/07 13:14:50;;;;;;;;;;;;;;;15.61;88.03;100935.19;6280637;22;19914;-83
2022/11/07 13:17:18;;;;;;;;;;;;;;;15.64;87.67;100930.31;6252991;22;19915;-85
2022/11/07 13:20:06;;;;;;;;;;;;;;;15.74;86.83;100928.16;6277760;22;19911;-83
2022/11/07 13:22:36;;;;;;;;;;;;;;;15.72;87.70;100932.88;6278702;22;19914;-87
2022/11/07 13:25:11;;;;;;;;;;;;;;;15.57;88.63;100929.38;6251202;22;19970;-82
2022/11/07 13:27:39;;;;;;;;;;;;;;;15.66;88.11;100928.28;6278059;22;19964;-83
2022/11/07 13:30:28;;;;;;;;;;;;;;;15.61;87.56;100929.84;6252265;22;19922;-83
2022/11/07 13:32:57;;;;;;;;;;;;;;;15.63;88.11;100928.66;6211639;22;19911;-84
2022/11/07 13:35:36;;;;;;;;;;;;;;;15.23;90.89;100926.38;6253212;22;19931;-83
2022/11/07 13:38:03;;;;;;;;;;;;;;;15.21;92.29;100926.53;6280402;22;19915;-82
2022/11/07 13:40:49;;;;;;;;;;;;;;;15.24;92.77;100933.38;6279456;22;20215;-81
2022/11/07 13:43:18;;;;;;;;;;;;;;;15.25;91.56;100929.69;6283191;22;19911;-83
2022/11/07 13:45:44;;;;;;;;;;;;;;;15.27;91.60;100925.00;6280335;22;20443;-84
2022/11/07 13:48:14;;;;;;;;;;;;;;;15.10;92.50;100934.19;6282626;22;19911;-86
2022/11/07 13:50:41;;;;;;;;;;;;;;;15.08;92.53;100934.34;6252582;22;19937;-85
2022/11/07 13:53:26;;;;;;;;;;;;;;;14.92;94.33;100937.16;6279528;22;19947;-84
2022/11/07 13:55:59;;;;;;;;;;;;;;;15.29;93.18;100930.97;6279459;22;19985;-80
2022/11/07 13:58:26;;;;;;;;;;;;;;;15.24;91.64;100930.72;6279743;22;19915;-84
2022/11/07 14:00:52;;;;;;;;;;;;;;;15.35;90.07;100930.25;6228617;22;19907;-85
2022/11/07 14:03:22;;;;;;;;;;;;;;;15.09;91.72;100936.03;6281347;22;19918;-83
2022/11/07 14:05:47;;;;;;;;;;;;;;;15.44;91.44;100934.50;6282529;22;19911;-81
2022/11/07 14:08:13;;;;;;;;;;;;;;;15.26;92.34;100934.84;6281888;22;19918;-86
2022/11/07 14:10:40;;;;;;;;;;;;;;;15.05;93.07;100928.56;6255087;22;19939;-83
2022/11/07 14:13:17;;;;;;;;;;;;;;;14.84;94.80;100943.41;6278219;22;19931;-85
2022/11/07 14:15:46;;;;;;;;;;;;;;;15.01;94.64;100938.78;6279771;22;19911;-85
2022/11/07 14:18:16;;;;;;;;;;;;;;;15.08;94.93;100931.69;6273417;22;19942;-83
2022/11/07 14:20:45;;;;;;;;;;;;;;;15.16;94.05;100933.44;6277625;22;20255;-84
2022/11/07 14:23:12;;;;;;;;;;;;;;;15.18;94.23;100934.91;6278302;22;19913;-86
2022/11/07 14:25:37;;;;;;;;;;;;;;;15.23;93.92;100942.41;6277543;22;19911;-86
2022/11/07 14:28:05;;;;;;;;;;;;;;;15.29;93.55;100936.31;6278957;22;19907;-87
2022/11/07 14:30:31;;;;;;;;;;;;;;;15.42;91.85;100931.19;6251367;22;19911;-87
2022/11/07 14:32:57;;;;;;;;;;;;;;;15.31;92.04;100923.63;6251308;22;19998;-89
2022/11/07 14:35:27;;;;;;;;;;;;;;;15.22;93.06;100935.38;6283253;22;20336;-87
2022/11/07 14:37:54;;;;;;;;;;;;;;;15.71;87.99;100931.19;6255169;22;20242;-83
2022/11/07 14:40:22;;;;;;;;;;;;;;;15.35;89.71;100935.59;6252191;22;20333;-83
2022/11/07 14:42:52;;;;;;;;;;;;;;;15.01;91.91;100936.09;6254423;22;19911;-85
2022/11/07 14:45:19;;;;;;;;;;;;;;;15.12;92.28;100940.16;6279404;22;19914;-83
2022/11/07 14:47:45;;;;;;;;;;;;;;;14.96;92.80;100939.31;6252989;22;19935;-86
2022/11/07 14:50:15;;;;;;;;;;;;;;;14.80;95.10;100942.13;6275427;22;19939;-83
2022/11/07 14:52:50;;;;;;;;;;;;;;;14.99;94.18;100936.28;6276532;22;19911;-84
2022/11/07 14:55:24;;;;;;;;;;;;;;;15.11;94.59;100933.19;6272585;22;20411;-81
2022/11/07 14:57:50;;;;;;;;;;;;;;;15.23;92.08;100942.41;6272527;22;19917;-83
2022/11/07 15:00:18;;;;;;;;;;;;;;;15.33;90.61;100941.13;6276121;22;20315;-85
2022/11/07 15:02:46;;;;;;;;;;;;;;;15.36;90.01;100942.59;6247715;22;19939;-84
2022/11/07 15:05:30;;;;;;;;;;;;;;;15.05;91.30;100936.56;6276276;22;19922;-85
2022/11/07 15:07:57;;;;;;;;;;;;;;;15.15;91.66;100937.13;6276551;22;20327;-82
2022/11/07 15:10:28;;;;;;;;;;;;;;;15.49;88.59;100940.97;6249284;22;20353;-86
2022/11/07 15:12:56;;;;;;;;;;;;;;;15.44;89.03;100940.66;6276827;22;19911;-86
2022/11/07 15:15:22;;;;;;;;;;;;;;;15.55;88.11;100934.06;6276536;22;20246;-83
2022/11/07 15:17:49;;;;;;;;;;;;;;;15.43;89.48;100933.69;6249984;22;20394;-82
2022/11/07 15:20:33;;;;;;;;;;;;;;;15.56;88.81;100933.06;6277432;22;20353;-82
2022/11/07 15:23:05;;;;;;;;;;;;;;;15.56;88.61;100933.06;6250876;22;20338;-83
2022/11/07 15:25:32;;;;;;;;;;;;;;;15.59;87.99;100939.88;6276458;22;19942;-83
2022/11/07 15:27:58;;;;;;;;;;;;;;;15.55;87.71;100941.25;6250307;22;19938;-84
2022/11/07 15:30:31;;;;;;;;;;;;;;;15.37;89.67;100944.25;6277650;22;19915;-87
2022/11/07 15:32:56;;;;;;;;;;;;;;;15.27;91.12;100938.34;6256304;22;19915;-84
2022/11/07 15:35:29;;;;;;;;;;;;;;;15.42;89.12;100942.69;6252883;22;20281;-86
2022/11/07 15:37:56;;;;;;;;;;;;;;;15.47;88.51;100945.66;6253162;22;19915;-85
2022/11/07 15:40:28;;;;;;;;;;;;;;;15.31;89.99;100939.66;6279025;22;20061;-83
2022/11/07 15:42:54;;;;;;;;;;;;;;;15.19;92.05;100941.09;6284758;22;19933;-84
2022/11/07 15:45:22;;;;;;;;;;;;;;;15.14;92.48;100932.81;6277920;22;19919;-83
2022/11/07 15:47:50;;;;;;;;;;;;;;;15.13;92.57;100942.66;6279269;22;19911;-81
2022/11/07 15:50:18;;;;;;;;;;;;;;;15.12;93.10;100941.00;6253301;22;20004;-85
2022/11/07 15:52:44;;;;;;;;;;;;;;;15.10;93.83;100939.53;6278364;22;19946;-84
2022/11/07 15:55:14;;;;;;;;;;;;;;;15.10;94.10;100944.84;6252080;22;19907;-85
2022/11/07 15:57:40;;;;;;;;;;;;;;;15.07;94.65;100947.91;6251821;22;20292;-84
2022/11/07 16:00:05;;;;;;;;;;;;;;;15.02;95.53;100946.59;6255549;22;19915;-83
2022/11/07 16:02:59;;;;;;;;;;;;;;;15.01;95.94;100952.94;6283894;22;19930;-86
2022/11/07 16:05:25;;;;;;;;;;;;;;;15.00;96.38;100945.94;6287371;22;19923;-84
2022/11/07 16:07:50;;;;;;;;;;;;;;;14.97;96.79;100948.16;6289893;22;19974;-84
2022/11/07 16:10:24;;;;;;;;;;;;;;;14.96;97.53;100946.47;6315519;22;19906;-88
2022/11/07 16:12:50;;;;;;;;;;;;;;;14.95;98.31;100950.16;6262951;22;19921;-82
2022/11/07 16:15:17;;;;;;;;;;;;;;;14.93;99.56;100952.19;6284591;22;20242;-83
2022/11/07 16:17:45;;;;;;;;;;;;;;;14.90;100.00;100953.38;6313351;22;19910;-80
2022/11/07 16:20:15;;;;;;;;;;;;;;;14.84;100.00;100948.75;6284832;22;19911;-82
2022/11/07 16:22:44;;;;;;;;;;;;;;;14.85;100.00;100945.06;6286385;22;19917;-83
2022/11/07 16:25:15;;;;;;;;;;;;;;;14.85;100.00;100945.06;6318966;22;19958;-81
2022/11/07 16:27:48;;;;;;;;;;;;;;;14.82;100.00;100956.09;6317488;22;19911;-87
2022/11/07 16:30:14;;;;;;;;;;;;;;;14.79;100.00;100950.28;6321387;22;19911;-88
2022/11/07 16:32:41;;;;;;;;;;;;;;;14.76;100.00;100954.16;6287019;22;19964;-85
2022/11/07 16:35:07;;;;;;;;;;;;;;;14.72;100.00;100950.16;6287641;22;19895;-86
2022/11/07 16:37:32;;;;;;;;;;;;;;;14.69;100.00;100945.19;6336366;22;19948;-87
2022/11/07 16:39:58;;;;;;;;;;;;;;;14.63;100.00;100940.56;6309048;22;19915;-85
2022/11/07 16:42:23;;;;;;;;;;;;;;;14.57;100.00;100943.97;6282715;22;19915;-86
2022/11/07 16:44:48;;;;;;;;;;;;;;;14.35;100.00;100958.13;6286622;22;19914;-85
2022/11/07 16:47:15;;;;;;;;;;;;;;;14.27;100.00;100950.94;6282630;22;19977;-83
2022/11/07 16:49:41;;;;;;;;;;;;;;;14.21;100.00;100945.50;6257644;22;20338;-86
2022/11/07 16:52:11;;;;;;;;;;;;;;;14.06;100.00;100947.22;6283396;22;19907;-86
2022/11/07 16:54:37;;;;;;;;;;;;;;;13.95;100.00;100954.59;6314048;22;19934;-87
2022/11/07 16:57:14;;;;;;;;;;;;;;;13.76;100.00;100949.69;6314674;22;19911;-88
2022/11/07 16:59:42;;;;;;;;;;;;;;;13.42;100.00;100943.81;6290770;22;19917;-91
2022/11/07 17:02:15;;;;;;;;;;;;;;;13.34;100.00;100951.81;6311102;22;20326;-84
2022/11/07 17:04:40;;;;;;;;;;;;;;;13.24;100.00;100961.81;6309249;22;19945;-83
2022/11/07 17:07:06;;;;;;;;;;;;;;;13.12;100.00;100960.50;6304828;22;19915;-85
2022/11/07 17:09:32;;;;;;;;;;;;;;;12.88;100.00;100972.78;6309948;22;19961;-87
2022/11/07 17:11:57;;;;;;;;;;;;;;;12.67;100.00;100975.06;6281001;22;20322;-84
2022/11/07 17:14:23;;;;;;;;;;;;;;;12.70;100.00;100974.75;6281182;22;19917;-83
2022/11/07 17:16:48;;;;;;;;;;;;;;;12.56;100.00;100972.72;6309138;22;19919;-83
2022/11/07 17:19:14;;;;;;;;;;;;;;;12.78;100.00;100977.44;6280993;22;19911;-81
2022/11/07 17:21:44;;;;;;;;;;;;;;;12.71;100.00;100971.09;6281438;22;20310;-82
2022/11/07 17:24:13;;;;;;;;;;;;;;;12.70;100.00;100980.06;6311080;22;19911;-85
2022/11/07 17:26:39;;;;;;;;;;;;;;;12.48;100.00;100979.88;6293597;22;19954;-81
2022/11/07 17:29:05;;;;;;;;;;;;;;;12.60;100.00;100979.38;6313597;22;19921;-88
2022/11/07 17:31:31;;;;;;;;;;;;;;;12.40;100.00;100978.00;6310070;22;19917;-87
2022/11/07 17:33:57;;;;;;;;;;;;;;;12.56;100.00;100982.56;6256421;22;19942;-87
2022/11/07 17:36:22;;;;;;;;;;;;;;;12.57;100.00;100985.03;6283256;22;19957;-86
2022/11/07 17:38:50;;;;;;;;;;;;;;;12.53;100.00;100989.00;6310998;22;20383;-89
2022/11/07 17:41:18;;;;;;;;;;;;;;;12.58;100.00;100989.38;6259259;22;19914;-85
2022/11/07 17:43:44;;;;;;;;;;;;;;;12.35;100.00;100977.69;6310654;22;19907;-86
2022/11/07 17:46:16;;;;;;;;;;;;;;;12.25;100.00;100979.66;6310362;22;20040;-87
2022/11/07 17:48:42;;;;;;;;;;;;;;;12.36;100.00;100987.34;6309601;22;20282;-83
2022/11/07 17:51:11;;;;;;;;;;;;;;;12.28;100.00;100985.47;6310203;22;19911;-84
2022/11/07 17:53:37;;;;;;;;;;;;;;;12.22;100.00;100987.94;6283341;22;19993;-90
2022/11/07 17:56:02;;;;;;;;;;;;;;;12.36;100.00;100990.78;6307263;22;19917;-89
2022/11/07 17:58:28;;;;;;;;;;;;;;;12.40;100.00;100996.63;6281647;22;19911;-89
2022/11/07 18:00:57;;;;;;;;;;;;;;;12.35;100.00;100993.63;6309472;22;19917;-87
2022/11/07 18:03:25;;;;;;;;;;;;;;;12.17;100.00;100993.72;6311151;22;19917;-88
2022/11/07 18:05:51;;;;;;;;;;;;;;;12.09;100.00;100995.53;6282537;22;19911;-88
2022/11/07 18:08:16;;;;;;;;;;;;;;;11.87;100.00;100996.91;6308155;22;19918;-88
2022/11/07 18:10:42;;;;;;;;;;;;;;;12.06;100.00;100998.53;6256867;22;19915;-87
2022/11/07 18:13:07;;;;;;;;;;;;;;;12.24;100.00;101010.69;6307891;22;19915;-85
2022/11/07 18:15:33;;;;;;;;;;;;;;;12.25;100.00;101006.22;6281431;22;19910;-88
2022/11/07 18:17:58;;;;;;;;;;;;;;;12.30;100.00;100999.41;6308762;22;19922;-89
2022/11/07 18:20:24;;;;;;;;;;;;;;;12.44;100.00;101016.56;6281163;22;19918;-88
2022/11/07 18:22:50;;;;;;;;;;;;;;;12.49;100.00;101014.28;6315773;22;19917;-92
2022/11/07 18:25:23;;;;;;;;;;;;;;;12.53;100.00;101015.59;6320527;22;19906;-91
2022/11/07 18:30:39;;;;;;;;;;;;;;;12.48;100.00;101017.91;6305044;22;19926;-90
2022/11/07 18:33:08;;;;;;;;;;;;;;;12.46;100.00;101017.25;6277070;22;19983;-89
2022/11/07 18:35:36;;;;;;;;;;;;;;;12.24;100.00;101016.00;6259311;22;19918;-86
2022/11/07 18:38:01;;;;;;;;;;;;;;;12.29;100.00;101018.19;6282809;22;19911;-86
2022/11/07 18:40:27;;;;;;;;;;;;;;;11.96;100.00;101017.25;6283101;22;19907;-86
2022/11/07 18:42:58;;;;;;;;;;;;;;;11.97;100.00;101007.41;6282399;22;19899;-88
2022/11/07 18:45:23;;;;;;;;;;;;;;;11.87;100.00;101010.19;6291872;22;19916;-84
2022/11/07 18:47:49;;;;;;;;;;;;;;;11.90;100.00;101016.03;6286683;22;20281;-90
2022/11/07 18:50:15;;;;;;;;;;;;;;;11.78;100.00;101016.47;6257604;22;20283;-84
2022/11/07 18:52:41;;;;;;;;;;;;;;;11.90;100.00;101024.00;6289461;22;19907;-84
2022/11/07 18:55:08;;;;;;;;;;;;;;;11.72;100.00;101017.09;6299522;22;19899;-86
2022/11/07 18:57:34;;;;;;;;;;;;;;;11.86;100.00;101016.53;6301672;22;19946;-89
2022/11/07 19:00:06;;;;;;;;;;;;;;;12.14;100.00;101022.44;6302832;22;19925;-85
2022/11/07 19:02:50;;;;;;;;;;;;;;;11.93;100.00;101016.72;6294240;22;19915;-86
2022/11/07 19:05:19;;;;;;;;;;;;;;;11.84;100.00;101024.63;6287201;22;19910;-84
2022/11/07 19:07:48;;;;;;;;;;;;;;;11.62;100.00;101017.19;6289035;22;19907;-85
2022/11/07 19:10:18;;;;;;;;;;;;;;;11.48;100.00;101012.44;6283986;22;19917;-84
2022/11/07 19:12:44;;;;;;;;;;;;;;;11.57;100.00;101016.81;6281591;22;19950;-84
2022/11/07 19:15:09;;;;;;;;;;;;;;;11.64;100.00;101017.84;6281400;22;19911;-85
2022/11/07 19:17:35;;;;;;;;;;;;;;;11.56;100.00;101025.78;6283534;22;19915;-82
2022/11/07 19:20:01;;;;;;;;;;;;;;;11.52;100.00;101024.41;6263783;22;19918;-83
2022/11/07 19:22:27;;;;;;;;;;;;;;;11.67;100.00;101025.50;6286409;22;19911;-85
2022/11/07 19:24:55;;;;;;;;;;;;;;;11.76;100.00;101024.59;6287088;22;19915;-90
2022/11/07 19:27:24;;;;;;;;;;;;;;;11.74;100.00;101023.06;6263475;22;19911;-89
2022/11/07 19:29:49;;;;;;;;;;;;;;;11.68;100.00;101029.81;6256951;22;20424;-89
2022/11/07 19:32:17;;;;;;;;;;;;;;;11.62;100.00;101030.47;6233786;22;19998;-92
2022/11/07 19:34:46;;;;;;;;;;;;;;;11.83;100.00;101030.94;6284743;22;19911;-88
2022/11/07 19:37:11;;;;;;;;;;;;;;;11.85;100.00;101031.63;6291275;22;19919;-88
2022/11/07 19:39:37;;;;;;;;;;;;;;;12.05;100.00;101034.03;6257526;22;19911;-89
2022/11/07 19:42:03;;;;;;;;;;;;;;;12.14;100.00;101022.44;6286500;22;19921;-85
2022/11/07 19:44:29;;;;;;;;;;;;;;;12.07;100.00;101029.38;6236849;22;19911;-85
2022/11/07 19:47:07;;;;;;;;;;;;;;;12.11;100.00;101028.91;6264407;22;19955;-88
2022/11/07 19:49:35;;;;;;;;;;;;;;;12.16;100.00;101033.75;6236128;22;19915;-85
2022/11/07 19:52:00;;;;;;;;;;;;;;;12.14;100.00;101041.03;6257701;22;19941;-87
2022/11/07 19:54:26;;;;;;;;;;;;;;;12.18;100.00;101042.41;6237589;22;19930;-90
2022/11/07 19:56:52;;;;;;;;;;;;;;;11.90;100.00;101039.94;6231656;22;19969;-89
2022/11/07 19:59:17;;;;;;;;;;;;;;;11.89;100.00;101035.63;6258494;22;20254;-87
2022/11/07 20:01:43;;;;;;;;;;;;;;;11.78;100.00;101033.25;6253978;22;19911;-85
2022/11/07 20:04:08;;;;;;;;;;;;;;;11.63;100.00;101036.59;6281387;22;19911;-86
2022/11/07 20:06:35;;;;;;;;;;;;;;;11.87;100.00;101045.56;6280791;22;19907;-88
2022/11/07 20:09:01;;;;;;;;;;;;;;;11.91;100.00;101040.78;6283294;22;19911;-88
2022/11/07 20:11:27;;;;;;;;;;;;;;;11.96;100.00;101043.81;6231111;22;19914;-86
2022/11/07 20:13:54;;;;;;;;;;;;;;;11.93;100.00;101048.59;6281384;22;20230;-87
2022/11/07 20:16:20;;;;;;;;;;;;;;;11.90;100.00;101042.59;6280765;22;19916;-86
2022/11/07 20:18:46;;;;;;;;;;;;;;;12.06;100.00;101054.31;6228620;22;19953;-87
2022/11/07 20:21:13;;;;;;;;;;;;;;;12.17;100.00;101054.00;6253768;22;19915;-84
2022/11/07 20:23:39;;;;;;;;;;;;;;;12.21;100.00;101060.69;6253360;22;19911;-85
2022/11/07 20:26:09;;;;;;;;;;;;;;;12.30;100.00;101062.38;6280606;22;20338;-84
2022/11/07 20:28:35;;;;;;;;;;;;;;;12.36;100.00;101073.19;6281151;22;19915;-86
2022/11/07 20:31:05;;;;;;;;;;;;;;;12.21;100.00;101069.50;6279527;22;19907;-85
2022/11/07 20:33:30;;;;;;;;;;;;;;;12.05;100.00;101074.72;6253439;22;19915;-87
2022/11/07 20:36:00;;;;;;;;;;;;;;;11.90;100.00;101077.13;6253142;22;19918;-83
2022/11/07 20:38:26;;;;;;;;;;;;;;;12.04;100.00;101077.53;6280403;22;19911;-84
2022/11/07 20:40:51;;;;;;;;;;;;;;;11.84;100.00;101072.44;6228197;22;19918;-85
2022/11/07 20:43:17;;;;;;;;;;;;;;;11.69;100.00;101068.69;6280781;22;19919;-84
2022/11/07 20:45:42;;;;;;;;;;;;;;;11.60;100.00;101074.88;6282339;22;19907;-83
2022/11/07 20:48:07;;;;;;;;;;;;;;;11.53;100.00;101070.38;6280064;22;19918;-84
2022/11/07 20:50:34;;;;;;;;;;;;;;;11.35;100.00;101078.34;6279321;22;19946;-86
2022/11/07 20:52:59;;;;;;;;;;;;;;;11.56;100.00;101080.69;6225758;22;20407;-85
2022/11/07 20:55:25;;;;;;;;;;;;;;;11.64;100.00;101076.25;6252582;22;19919;-82
2022/11/07 20:57:50;;;;;;;;;;;;;;;11.59;100.00;101077.72;6281842;22;19911;-83
2022/11/07 21:00:19;;;;;;;;;;;;;;;11.73;100.00;101079.84;6281955;22;19935;-82
2022/11/07 21:02:44;;;;;;;;;;;;;;;11.66;100.00;101074.31;6254507;22;19919;-83
2022/11/07 21:05:10;;;;;;;;;;;;;;;11.90;100.00;101076.28;6283244;22;19911;-81
2022/11/07 21:07:35;;;;;;;;;;;;;;;11.90;100.00;101081.59;6280567;22;19957;-82
2022/11/07 21:10:00;;;;;;;;;;;;;;;11.97;100.00;101081.78;6280647;22;20246;-81
2022/11/07 21:12:26;;;;;;;;;;;;;;;11.69;100.00;101078.47;6281232;22;19907;-82
2022/11/07 21:14:51;;;;;;;;;;;;;;;11.71;100.00;101079.16;6279840;22;20327;-83